Terminal Aerodrome Forecast
Issued by NWS Portland, ME

Current Version | Previous Version | Text Only | Print | Product List | Glossary On
Versions: 1 2 3 4 5 6 7 8 9 10 11 12 13 14 15 16 17 18 19 20 21 22 23 24 25 26 27 28 29
000 FTUS41 KGYX 280726 AAA TAFCON TAF AMD KCON 280726Z 2807/2906 00000KT 1 1/2SM BR FEW002 TEMPO 2808/2812 1/2SM FG OVC002 FM281200 31006KT P6SM SCT250 FM281300 31006KT P6SM SCT250=

USA.gov is the U.S. government's official web portal to all federal, state and local government web resources and services.